Time;durP1;ratioP1;P1;durP2;ratioP2;P2;SDS_P1;SDS_P2;PMS_P1;PMS_P2;Temp;Humidity;BMP_temperature;BMP_pressure;BME280_temperature;BME280_humidity;BME280_pressure;Samples;Min_cycle;Max_cycle;Signal;HPM_P1;HPM_P2
2022/03/04 00:00:59;;;;;;;10.30;7.63;;;-2.70;80.10;-2.60;96590.00;;;;5111185;28;20437;-66
2022/03/04 00:03:48;;;;;;;11.67;7.63;;;-2.70;79.80;-2.70;96579.00;;;;5112119;28;20428;-66
2022/03/04 00:06:37;;;;;;;17.43;9.03;;;-2.80;80.30;-2.60;96583.00;;;;5110549;28;20463;-66
2022/03/04 00:09:26;;;;;;;16.43;8.43;;;-2.80;80.70;-3.10;96592.00;;;;5111483;28;20440;-67
2022/03/04 00:12:15;;;;;;;12.00;9.10;;;-2.80;81.80;-3.00;96589.00;;;;5111250;28;20444;-66
2022/03/04 00:15:07;;;;;;;12.70;8.70;;;-2.90;82.20;-2.60;96584.00;;;;5102631;28;20440;-67
2022/03/04 00:17:55;;;;;;;12.40;9.33;;;-2.90;82.80;-2.70;96587.00;;;;5110880;28;20795;-67
2022/03/04 00:20:44;;;;;;;23.30;9.07;;;-2.90;83.10;-2.50;96586.00;;;;5099308;28;20955;-66
2022/03/04 00:23:33;;;;;;;11.07;9.17;;;-2.90;83.50;-2.50;96575.00;;;;5109692;28;20428;-66
2022/03/04 00:26:22;;;;;;;10.63;7.63;;;-2.90;83.30;-2.50;96582.00;;;;5109745;28;20471;-67
2022/03/04 00:29:12;;;;;;;15.67;8.20;;;-2.90;83.10;-2.60;96579.00;;;;5110951;28;21052;-66
2022/03/04 00:32:02;;;;;;;14.13;9.33;;;-2.90;83.10;-2.40;96589.00;;;;5110233;28;20444;-66
2022/03/04 00:34:51;;;;;;;10.90;9.50;;;-2.90;83.20;-2.50;96585.00;;;;5097215;28;20421;-66
2022/03/04 00:37:40;;;;;;;13.60;9.77;;;-2.80;83.70;-2.70;96581.00;;;;5110504;28;20891;-67
2022/03/04 00:40:29;;;;;;;11.90;8.37;;;-2.90;83.10;-2.60;96579.00;;;;5103374;28;20427;-66
2022/03/04 00:43:18;;;;;;;10.97;5.70;;;-2.10;83.50;-3.10;96578.00;;;;5109440;28;20478;-66
2022/03/04 00:46:07;;;;;;;11.17;7.27;;;-2.90;83.50;-3.70;96572.00;;;;5110009;28;20451;-67
2022/03/04 00:48:57;;;;;;;18.27;8.47;;;-3.00;85.10;-3.80;96573.00;;;;5110444;28;20433;-66
2022/03/04 00:51:46;;;;;;;15.23;8.17;;;-3.20;86.20;-3.20;96560.00;;;;5110156;28;20989;-66
2022/03/04 00:54:35;;;;;;;14.80;10.07;;;-3.30;86.60;-2.90;96561.00;;;;5110536;28;20417;-66
2022/03/04 00:57:23;;;;;;;11.67;8.70;;;-3.20;86.50;-2.90;96556.00;;;;5110894;28;20790;-66
2022/03/04 01:00:14;;;;;;;15.10;8.83;;;-3.20;86.60;-3.50;96554.00;;;;5110103;28;20950;-66
2022/03/04 01:03:04;;;;;;;9.67;6.70;;;-3.20;87.30;-4.00;96556.00;;;;5109777;28;20781;-66
2022/03/04 01:05:54;;;;;;;12.73;6.57;;;-3.40;88.30;-4.20;96543.00;;;;5110277;28;20417;-66
2022/03/04 01:08:43;;;;;;;13.17;8.63;;;-3.50;89.80;-4.00;96542.00;;;;5109756;28;20471;-67
2022/03/04 01:11:32;;;;;;;13.23;8.47;;;-3.60;90.50;-4.00;96538.00;;;;5110017;28;20436;-66
2022/03/04 01:14:21;;;;;;;11.03;8.30;;;-3.70;91.10;-3.60;96533.00;;;;5106046;28;20426;-66
2022/03/04 01:17:11;;;;;;;25.70;8.73;;;-3.70;90.90;-3.50;96539.00;;;;5108452;28;20427;-66
2022/03/04 01:20:00;;;;;;;12.63;8.70;;;-3.70;90.90;-3.50;96544.00;;;;5109629;28;20428;-66
2022/03/04 01:22:50;;;;;;;12.17;7.63;;;-3.60;91.10;-3.90;96542.00;;;;5109327;28;20428;-66
2022/03/04 01:25:39;;;;;;;12.07;8.73;;;-3.60;91.10;-3.80;96532.00;;;;5109893;28;20417;-66
2022/03/04 01:28:27;;;;;;;14.20;8.77;;;-3.60;91.20;-3.40;96535.00;;;;5109233;28;20484;-67
2022/03/04 01:31:16;;;;;;;13.70;8.50;;;-3.60;91.20;-3.30;96540.00;;;;5109408;28;20457;-67
2022/03/04 01:34:05;;;;;;;7.30;6.63;;;-3.60;91.00;-3.70;96532.00;;;;5108898;28;20431;-66
2022/03/04 01:36:54;;;;;;;14.60;8.87;;;-3.50;91.20;-4.00;96539.00;;;;5109614;28;20424;-66
2022/03/04 01:39:44;;;;;;;12.00;8.00;;;-3.60;91.50;-3.70;96537.00;;;;5108087;28;20437;-67
2022/03/04 01:42:33;;;;;;;11.87;7.93;;;-3.70;91.80;-3.30;96531.00;;;;5108394;28;20444;-66
2022/03/04 01:45:22;;;;;;;12.57;9.27;;;-3.70;91.80;-3.30;96534.00;;;;5109568;28;20432;-66
2022/03/04 01:48:11;;;;;;;13.80;7.83;;;-3.70;92.00;-3.30;96532.00;;;;5108514;28;21013;-67
2022/03/04 01:51:00;;;;;;;11.37;7.60;;;-3.60;92.00;-3.40;96535.00;;;;5109592;28;20441;-67
2022/03/04 01:53:48;;;;;;;14.67;8.67;;;-3.70;91.70;-3.80;96521.00;;;;5109259;28;20503;-67
2022/03/04 01:56:39;;;;;;;14.43;7.83;;;-3.70;91.70;-3.60;96526.00;;;;5108410;28;20425;-66
2022/03/04 01:59:28;;;;;;;10.83;7.23;;;-3.70;91.70;-3.80;96526.00;;;;5109148;28;20958;-66
2022/03/04 02:02:17;;;;;;;13.20;8.43;;;-3.80;91.90;-3.80;96523.00;;;;5108890;28;20856;-66
2022/03/04 02:05:07;;;;;;;17.43;9.00;;;-3.80;92.10;-3.80;96522.00;;;;5109273;28;20428;-66
2022/03/04 02:07:56;;;;;;;14.43;8.13;;;-3.90;92.30;-3.70;96525.00;;;;5109310;28;20528;-66
2022/03/04 02:10:45;;;;;;;13.77;8.77;;;-3.90;92.50;-3.90;96534.00;;;;5109312;28;20448;-66
2022/03/04 02:13:37;;;;;;;12.50;7.63;;;-3.90;92.40;-4.10;96524.00;;;;5108846;28;20428;-66
2022/03/04 02:16:34;;;;;;;11.10;7.90;;;-4.00;92.90;-4.30;96524.00;;;;5108887;28;20424;-66
2022/03/04 02:19:23;;;;;;;11.97;8.07;;;-4.10;93.30;-4.30;96517.00;;;;5108882;28;20417;-68
2022/03/04 02:22:14;;;;;;;12.57;8.17;;;-4.10;93.80;-4.60;96519.00;;;;5109336;28;20441;-66
2022/03/04 02:25:05;;;;;;;8.00;6.70;;;-4.20;94.20;-4.70;96520.00;;;;5095227;28;20425;-65
2022/03/04 02:27:54;;;;;;;5.93;4.40;;;-4.30;94.60;-5.30;96500.00;;;;5108508;28;20463;-66
2022/03/04 02:30:43;;;;;;;8.33;6.93;;;-4.40;95.30;-5.40;96501.00;;;;5093763;28;20449;-66
2022/03/04 02:33:32;;;;;;;11.90;6.73;;;-4.60;96.40;-5.20;96509.00;;;;5098037;28;20430;-66
2022/03/04 02:36:22;;;;;;;12.10;8.20;;;-4.70;97.20;-5.00;96516.00;;;;5095856;28;20422;-66
2022/03/04 02:39:12;;;;;;;14.23;7.85;;;-4.70;98.00;-4.60;96515.00;;;;5099179;28;20948;-66
2022/03/04 02:42:01;;;;;;;10.70;7.50;;;-4.70;98.10;-4.30;96505.00;;;;5091673;28;20725;-66
2022/03/04 02:44:50;;;;;;;15.27;9.40;;;-4.60;98.20;-4.20;96512.00;;;;5101062;28;20559;-65
2022/03/04 02:47:39;;;;;;;15.23;8.93;;;-4.50;98.20;-4.00;96509.00;;;;5099922;28;20882;-66
2022/03/04 02:50:28;;;;;;;14.83;8.77;;;-4.40;98.00;-4.00;96507.00;;;;5112926;28;20424;-66
2022/03/04 02:53:17;;;;;;;8.37;6.97;;;-4.30;97.60;-3.80;96514.00;;;;5112779;28;20424;-66
2022/03/04 02:56:07;;;;;;;20.10;8.83;;;-4.20;97.40;-3.80;96519.00;;;;5112935;28;20435;-66
2022/03/04 02:58:56;;;;;;;12.83;8.37;;;-4.10;97.30;-3.90;96507.00;;;;5112869;28;20425;-66
2022/03/04 03:01:44;;;;;;;15.90;8.67;;;-4.10;97.00;-3.70;96519.00;;;;5112478;28;20475;-66
2022/03/04 03:04:33;;;;;;;11.23;7.17;;;-4.00;96.90;-3.60;96511.00;;;;5102443;28;20507;-66
2022/03/04 03:07:22;;;;;;;16.17;9.03;;;-3.90;96.70;-3.30;96514.00;;;;5099472;28;20428;-66
2022/03/04 03:10:12;;;;;;;13.50;8.20;;;-3.80;96.40;-3.30;96521.00;;;;5112530;28;20427;-66
2022/03/04 03:13:02;;;;;;;11.30;8.63;;;-3.80;96.10;-3.80;96520.00;;;;5112026;28;20428;-66
2022/03/04 03:15:51;;;;;;;11.30;6.47;;;-3.80;95.80;-4.60;96516.00;;;;5105413;28;20428;-66
2022/03/04 03:18:40;;;;;;;13.67;6.20;;;-3.90;95.80;-4.40;96525.00;;;;5098805;28;20447;-66
2022/03/04 03:21:29;;;;;;;2.00;1.80;;;-4.00;96.60;-4.90;96500.00;;;;5110573;28;20580;-66
2022/03/04 03:24:17;;;;;;;10.20;7.67;;;-4.20;97.30;-4.30;96520.00;;;;5112858;28;20432;-66
2022/03/04 03:27:06;;;;;;;9.93;6.23;;;-4.20;97.60;-4.30;96517.00;;;;5103970;28;20425;-66
2022/03/04 03:29:56;;;;;;;10.10;8.27;;;-4.30;97.70;-4.30;96520.00;;;;5100395;28;20460;-66
2022/03/04 03:32:45;;;;;;;10.17;7.23;;;-4.30;97.80;-4.70;96512.00;;;;5108007;28;20444;-66
2022/03/04 03:35:34;;;;;;;2.97;2.77;;;-4.30;98.10;-5.00;96520.00;;;;5111326;28;20923;-66
2022/03/04 03:38:24;;;;;;;18.50;9.88;;;-4.40;98.40;-5.00;96517.00;;;;5109299;28;20433;-66
2022/03/04 03:41:13;;;;;;;11.57;8.73;;;-4.50;98.90;-4.40;96517.00;;;;5097916;28;20215;-66
2022/03/04 03:44:02;;;;;;;9.63;7.90;;;-4.50;99.00;-4.20;96518.00;;;;5110808;28;20440;-65
2022/03/04 03:46:52;;;;;;;9.53;7.53;;;-4.50;99.30;-4.40;96511.00;;;;5111613;28;20562;-66
2022/03/04 03:49:41;;;;;;;14.95;8.73;;;-4.50;99.00;-4.80;96517.00;;;;5111779;28;20456;-66
2022/03/04 03:52:29;;;;;;;9.75;6.65;;;-4.60;99.10;-5.30;96513.00;;;;5110619;28;20222;-66
2022/03/04 03:55:18;;;;;;;16.30;7.40;;;-4.70;99.50;-4.70;96513.00;;;;5111593;28;20201;-66
2022/03/04 03:58:07;;;;;;;10.17;7.80;;;-4.70;99.90;-4.50;96540.00;;;;5109662;28;20958;-66
2022/03/04 04:00:56;;;;;;;16.57;9.17;;;-4.10;99.90;-4.50;96532.00;;;;5110475;28;20471;-66
2022/03/04 04:03:46;;;;;;;10.60;7.37;;;-4.70;99.90;-4.60;96533.00;;;;5111336;28;20425;-66
2022/03/04 04:06:34;;;;;;;10.20;6.93;;;-4.70;99.90;-4.70;96526.00;;;;5111407;28;20427;-66
2022/03/04 04:09:23;;;;;;;18.17;8.30;;;-4.60;99.90;-4.50;96533.00;;;;5111121;28;20545;-66
2022/03/04 04:12:13;;;;;;;14.13;7.18;;;-4.60;99.90;-4.60;96522.00;;;;5111126;28;20222;-66
2022/03/04 04:15:01;;;;;;;12.55;7.72;;;-4.60;99.90;-5.10;96530.00;;;;5104325;28;20210;-66
2022/03/04 04:17:50;;;;;;;10.87;8.00;;;-4.70;99.90;-4.60;96529.00;;;;5110504;28;20211;-66
2022/03/04 04:20:40;;;;;;;11.35;8.15;;;-4.60;99.90;-4.80;96534.00;;;;5101554;28;20430;-65
2022/03/04 04:23:29;;;;;;;14.80;8.93;;;-4.60;99.80;-4.90;96530.00;;;;5105668;28;20212;-65
2022/03/04 04:26:19;;;;;;;9.55;7.65;;;-4.70;99.90;-4.90;96535.00;;;;5109916;28;20931;-65
2022/03/04 04:29:07;;;;;;;8.13;6.90;;;-4.80;99.90;-4.70;96531.00;;;;5110858;28;20218;-65
2022/03/04 04:31:56;;;;;;;15.50;8.02;;;-4.80;99.90;-4.50;96529.00;;;;5108886;28;20225;-65
2022/03/04 04:34:45;;;;;;;12.83;7.77;;;-4.70;99.90;-4.40;96525.00;;;;5110251;28;20685;-66
2022/03/04 04:37:35;;;;;;;11.17;7.83;;;-4.70;99.90;-4.70;96531.00;;;;5110359;28;20432;-66
2022/03/04 04:40:24;;;;;;;10.80;6.63;;;-4.70;99.90;-4.90;96545.00;;;;5103601;28;20435;-66
2022/03/04 04:43:13;;;;;;;7.17;3.37;;;-4.70;99.90;-5.80;96530.00;;;;5110612;28;20424;-66
2022/03/04 04:46:01;;;;;;;16.25;8.18;;;-4.80;99.90;-5.50;96535.00;;;;5110907;28;20432;-66
2022/03/04 04:48:50;;;;;;;11.20;6.40;;;-5.00;99.90;-5.20;96534.00;;;;5110236;28;20222;-66
2022/03/04 04:51:39;;;;;;;7.38;5.22;;;-5.10;99.90;-5.30;96531.00;;;;5105913;28;20436;-66
2022/03/04 04:54:29;;;;;;;14.80;8.00;;;-5.00;99.90;-4.80;96530.00;;;;5099492;28;20199;-66
2022/03/04 04:57:18;;;;;;;8.75;7.03;;;-5.00;99.90;-4.90;96541.00;;;;5109184;28;20201;-66
2022/03/04 05:00:08;;;;;;;14.50;8.18;;;-4.90;99.90;-4.70;96543.00;;;;5110399;28;20709;-66
2022/03/04 05:02:56;;;;;;;10.05;5.93;;;-4.90;99.90;-5.30;96539.00;;;;5101125;28;20222;-66
2022/03/04 05:05:45;;;;;;;11.30;8.53;;;-4.90;99.90;-5.30;96545.00;;;;5103838;28;20207;-66
2022/03/04 05:08:34;;;;;;;10.10;7.18;;;-5.00;99.90;-5.40;96533.00;;;;5106687;28;20416;-66
2022/03/04 05:11:25;;;;;;;11.07;8.98;;;-5.10;99.90;-5.50;96539.00;;;;5109843;28;20609;-65
2022/03/04 05:14:14;;;;;;;5.40;4.88;;;-5.20;99.90;-5.60;96534.00;;;;5105914;28;20206;-66
2022/03/04 05:17:03;;;;;;;9.57;7.78;;;-5.20;99.90;-5.30;96540.00;;;;5102428;28;20225;-66
2022/03/04 05:19:52;;;;;;;4.03;2.70;;;-5.20;99.90;-5.60;96551.00;;;;5107339;28;20592;-66
2022/03/04 05:22:40;;;;;;;13.52;7.55;;;-5.20;99.90;-5.70;96541.00;;;;5101504;28;20607;-66
2022/03/04 05:25:29;;;;;;;12.10;7.72;;;-5.30;99.90;-5.60;96553.00;;;;5102628;28;20206;-66
2022/03/04 05:28:19;;;;;;;15.57;9.65;;;-5.40;99.90;-5.20;96549.00;;;;5109731;28;20198;-66
2022/03/04 05:31:08;;;;;;;9.32;7.38;;;-5.40;99.90;-5.10;96552.00;;;;5109523;28;20222;-66
2022/03/04 05:33:57;;;;;;;7.40;6.38;;;-5.30;99.90;-5.50;96544.00;;;;5103679;28;20213;-66
2022/03/04 05:36:46;;;;;;;20.77;8.10;;;-5.30;99.90;-5.50;96545.00;;;;5109798;28;20541;-66
2022/03/04 05:39:35;;;;;;;9.35;6.63;;;-5.30;99.90;-5.40;96551.00;;;;5103904;28;20207;-66
2022/03/04 05:42:24;;;;;;;10.65;8.35;;;-5.30;99.90;-5.30;96556.00;;;;5101118;28;20207;-66
2022/03/04 05:45:14;;;;;;;8.55;5.82;;;-5.20;99.90;-5.40;96558.00;;;;5101695;28;20210;-66
2022/03/04 05:48:03;;;;;;;10.15;7.13;;;-5.20;99.90;-5.40;96567.00;;;;5097632;28;20199;-66
2022/03/04 05:50:52;;;;;;;11.18;7.85;;;-5.30;99.90;-5.20;96573.00;;;;5097690;28;20237;-66
2022/03/04 05:53:41;;;;;;;12.88;7.22;;;-5.20;99.90;-5.60;96561.00;;;;5102725;28;20696;-66
2022/03/04 05:56:30;;;;;;;17.45;9.18;;;-5.30;99.90;-5.70;96570.00;;;;5109124;28;20197;-66
2022/03/04 05:59:18;;;;;;;14.48;9.13;;;-5.40;99.90;-5.20;96573.00;;;;5096745;28;20214;-66
2022/03/04 06:02:08;;;;;;;15.20;8.35;;;-5.40;99.90;-4.90;96573.00;;;;5098395;28;20222;-66
2022/03/04 06:04:57;;;;;;;16.08;8.07;;;-5.30;99.90;-4.80;96580.00;;;;5097617;28;20255;-66
2022/03/04 06:07:46;;;;;;;12.50;6.33;;;-5.30;99.90;-4.60;96577.00;;;;5092554;28;20199;-66
2022/03/04 06:10:34;;;;;;;10.27;6.93;;;-5.20;99.90;-5.00;96593.00;;;;5098094;28;20460;-66
2022/03/04 06:13:24;;;;;;;9.45;4.80;;;-5.10;99.90;-4.70;96594.00;;;;5107045;28;20432;-66
2022/03/04 06:16:13;;;;;;;14.17;8.07;;;-4.90;99.90;-4.50;96600.00;;;;5101005;28;20198;-66
2022/03/04 06:19:03;;;;;;;12.57;8.38;;;-4.80;99.90;-4.70;96598.00;;;;5095890;28;20812;-66
2022/03/04 06:21:52;;;;;;;16.00;8.32;;;-4.70;99.90;-5.00;96592.00;;;;5104444;28;20233;-66
2022/03/04 06:24:41;;;;;;;5.32;4.70;;;-4.70;99.90;-5.90;96589.00;;;;5109887;28;20680;-66
2022/03/04 06:27:29;;;;;;;6.43;5.50;;;-4.90;99.90;-5.10;96596.00;;;;5107821;28;20203;-67
2022/03/04 06:30:18;;;;;;;6.15;4.07;;;-4.90;99.90;-5.30;96598.00;;;;5111311;28;20464;-67
2022/03/04 06:36:16;;;;;;;5.85;4.32;;;-4.90;99.90;-5.00;96596.00;;;;5105252;28;20762;-66
2022/03/04 06:39:05;;;;;;;10.52;5.35;;;-4.80;99.90;-4.50;96605.00;;;;5104132;28;20209;-67
2022/03/04 06:41:54;;;;;;;6.90;4.43;;;-4.60;99.90;-4.20;96612.00;;;;5105352;28;20233;-67
2022/03/04 06:44:42;;;;;;;8.50;4.53;;;-4.50;99.90;-4.60;96606.00;;;;5106337;28;20452;-67
2022/03/04 06:47:31;;;;;;;13.20;8.40;;;-4.30;99.90;-4.10;96617.00;;;;5108673;28;20428;-66
2022/03/04 06:50:20;;;;;;;12.27;8.37;;;-4.20;99.90;-4.00;96618.00;;;;5106988;28;20585;-66
2022/03/04 06:53:10;;;;;;;17.02;8.85;;;-4.10;99.90;-4.40;96612.00;;;;5110688;28;20425;-66
2022/03/04 06:55:59;;;;;;;12.80;6.27;;;-4.00;99.90;-4.10;96602.00;;;;5103372;28;20216;-66
2022/03/04 06:58:48;;;;;;;9.43;6.57;;;-4.00;99.90;-3.70;96613.00;;;;5115509;28;20435;-66
2022/03/04 07:01:37;;;;;;;11.93;8.20;;;-3.90;99.90;-3.40;96620.00;;;;5111653;28;21014;-66
2022/03/04 07:04:26;;;;;;;12.00;8.80;;;-3.70;99.80;-3.70;96615.00;;;;5109676;28;20436;-66
2022/03/04 07:07:14;;;;;;;12.23;7.43;;;-3.60;99.90;-3.50;96617.00;;;;5107544;28;20421;-66
2022/03/04 07:10:08;;;;;;;8.43;6.80;;;-3.60;99.80;-3.30;96620.00;;;;5108444;28;20483;-66
2022/03/04 07:12:57;;;;;;;8.77;6.80;;;-3.50;99.30;-3.00;96617.00;;;;5110484;28;20438;-65
2022/03/04 07:15:46;;;;;;;3.40;2.53;;;-3.40;98.90;-3.20;96625.00;;;;5109874;28;20428;-66
2022/03/04 07:18:34;;;;;;;11.47;7.97;;;-3.30;98.20;-3.20;96621.00;;;;5113922;28;20879;-66
2022/03/04 07:21:23;;;;;;;14.70;7.93;;;-3.20;97.90;-3.10;96618.00;;;;5103417;28;20473;-66
2022/03/04 07:24:15;;;;;;;12.43;6.40;;;-3.20;97.90;-3.30;96625.00;;;;5101184;28;20417;-66
2022/03/04 07:27:05;;;;;;;17.83;10.20;;;-3.20;97.20;-3.20;96629.00;;;;5109943;28;20451;-66
2022/03/04 07:29:54;;;;;;;15.37;8.47;;;-3.10;96.90;-2.80;96632.00;;;;5102226;28;20982;-66
2022/03/04 07:32:44;;;;;;;13.23;9.90;;;-3.10;96.70;-2.70;96634.00;;;;5098900;28;20468;-67
2022/03/04 07:35:33;;;;;;;21.90;10.90;;;-3.00;97.10;-2.70;96643.00;;;;5105015;28;20931;-67
2022/03/04 07:38:21;;;;;;;40.30;23.70;;;-2.90;97.60;-2.40;96639.00;;;;5109256;28;20424;-67
2022/03/04 07:41:10;;;;;;;79.53;37.20;;;-2.80;97.70;-2.20;96650.00;;;;5109217;28;20448;-66
2022/03/04 07:44:00;;;;;;;58.73;26.83;;;-2.70;97.70;-2.30;96648.00;;;;5109777;28;20432;-67
2022/03/04 07:46:49;;;;;;;83.50;36.87;;;-2.60;97.50;-2.30;96653.00;;;;5100757;28;20961;-66
2022/03/04 07:49:38;;;;;;;23.43;15.50;;;-2.60;97.30;-2.50;96656.00;;;;5099420;28;20434;-67
2022/03/04 07:52:31;;;;;;;30.93;15.43;;;-2.60;97.60;-2.10;96663.00;;;;5101567;28;20448;-67
2022/03/04 07:55:20;;;;;;;32.07;14.20;;;-2.50;97.70;-1.80;96664.00;;;;5111639;28;20828;-66
2022/03/04 07:58:09;;;;;;;25.77;13.47;;;-2.40;97.60;-1.80;96666.00;;;;5132522;22;20481;-66
2022/03/04 08:00:59;;;;;;;16.63;11.53;;;-2.30;97.70;-1.80;96659.00;;;;5102454;28;20436;-67
2022/03/04 08:04:05;;;;;;;36.40;17.53;;;-2.20;97.10;-1.50;96658.00;;;;5109409;27;20795;-66
2022/03/04 08:06:54;;;;;;;62.93;36.97;;;-2.10;97.30;-1.30;96662.00;;;;5110568;27;20453;-66
2022/03/04 08:09:43;;;;;;;19.47;14.03;;;-2.00;97.30;-1.40;96663.00;;;;5107185;28;20456;-67
2022/03/04 08:12:31;;;;;;;28.70;15.70;;;-1.80;97.30;-1.10;96643.00;;;;5109762;28;20425;-66
2022/03/04 08:15:20;;;;;;;23.37;13.40;;;-1.60;96.80;-0.40;96647.00;;;;5089987;28;20429;-67
2022/03/04 08:18:11;;;;;;;16.33;10.83;;;-1.40;96.70;0.00;96651.00;;;;5092595;28;20453;-65
2022/03/04 08:21:00;;;;;;;24.17;15.67;;;-1.10;96.40;0.70;96648.00;;;;5085949;28;20433;-66
2022/03/04 08:23:48;;;;;;;16.90;10.00;;;-0.80;96.30;1.10;96660.00;;;;5077633;28;20418;-68
2022/03/04 08:26:38;;;;;;;13.67;9.07;;;-0.40;95.20;2.10;96660.00;;;;5087642;28;20442;-67
2022/03/04 08:29:27;;;;;;;12.77;8.43;;;0.10;92.10;2.80;96660.00;;;;5083039;28;20442;-68
2022/03/04 08:32:16;;;;;;;14.27;8.90;;;0.70;86.80;3.20;96658.00;;;;5085071;28;20462;-68
2022/03/04 08:35:09;;;;;;;11.27;7.77;;;1.30;82.90;3.60;96661.00;;;;5077774;28;20421;-66
2022/03/04 08:38:00;;;;;;;12.70;8.07;;;1.80;80.20;4.10;96669.00;;;;5084172;28;20425;-67
2022/03/04 08:40:48;;;;;;;12.30;8.50;;;2.30;78.20;4.20;96665.00;;;;5084860;28;20437;-68
2022/03/04 08:43:38;;;;;;;14.03;10.23;;;2.70;74.20;4.40;96670.00;;;;5083750;28;20438;-67
2022/03/04 08:46:27;;;;;;;20.67;9.80;;;3.00;70.80;4.50;96660.00;;;;5085379;28;20411;-68
2022/03/04 08:49:18;;;;;;;15.90;10.40;;;3.30;68.70;5.00;96665.00;;;;5081950;28;20468;-67
2022/03/04 08:52:08;;;;;;;12.17;7.23;;;3.60;67.90;4.80;96663.00;;;;5086322;28;20467;-67
2022/03/04 08:54:57;;;;;;;13.33;8.43;;;3.80;64.70;5.10;96668.00;;;;5086604;28;20413;-67
2022/03/04 08:57:47;;;;;;;12.97;10.00;;;4.00;62.80;5.40;96672.00;;;;5109986;28;20421;-67
2022/03/04 09:00:36;;;;;;;13.93;7.83;;;4.20;62.30;5.30;96671.00;;;;5085369;28;21238;-58
2022/03/04 09:03:25;;;;;;;9.37;7.83;;;4.30;60.20;5.40;96670.00;;;;5073165;28;20812;-68
2022/03/04 09:06:14;;;;;;;12.80;8.37;;;4.50;59.10;5.60;96673.00;;;;5084527;28;20417;-66
2022/03/04 09:09:04;;;;;;;15.00;9.40;;;4.60;58.30;5.70;96667.00;;;;5077396;28;20481;-68
2022/03/04 09:11:53;;;;;;;13.53;8.60;;;4.70;57.90;6.30;96671.00;;;;5073756;28;20477;-67
2022/03/04 09:14:42;;;;;;;17.60;8.37;;;4.90;58.40;6.20;96657.00;;;;5087041;28;20425;-68
2022/03/04 09:17:31;;;;;;;13.10;7.20;;;5.10;57.20;6.30;96655.00;;;;5081187;28;20795;-63
2022/03/04 09:20:20;;;;;;;13.30;7.47;;;5.20;56.70;6.40;96664.00;;;;5109854;28;20421;-65
2022/03/04 09:23:09;;;;;;;12.87;7.37;;;5.30;56.70;6.70;96660.00;;;;5100337;28;20446;-63
2022/03/04 09:25:59;;;;;;;10.97;7.50;;;5.40;56.10;7.10;96661.00;;;;5105376;28;20195;-65
2022/03/04 09:28:48;;;;;;;14.97;7.37;;;5.60;56.70;7.20;96652.00;;;;5109372;28;20222;-65
2022/03/04 09:31:37;;;;;;;8.83;6.50;;;5.70;56.40;7.20;96655.00;;;;5101591;28;20305;-65
2022/03/04 09:34:25;;;;;;;16.00;8.03;;;5.90;55.70;7.40;96650.00;;;;5085337;28;20237;-65
2022/03/04 09:37:14;;;;;;;10.67;7.63;;;6.00;55.30;7.70;96650.00;;;;5084412;28;20199;-64
2022/03/04 09:40:04;;;;;;;10.50;7.03;;;6.20;55.30;7.80;96645.00;;;;5078575;28;20227;-61
2022/03/04 09:42:55;;;;;;;10.80;7.00;;;6.40;55.50;8.00;96640.00;;;;5080854;28;20196;-61
2022/03/04 09:45:46;;;;;;;12.93;7.93;;;6.60;55.10;8.10;96644.00;;;;5084292;28;20210;-63
2022/03/04 09:48:40;;;;;;;11.70;7.07;;;6.80;54.40;8.10;96648.00;;;;5084743;28;20223;-66
2022/03/04 09:51:29;;;;;;;9.47;6.87;;;6.90;53.20;8.50;96651.00;;;;5078778;28;20223;-66
2022/03/04 09:54:18;;;;;;;7.57;5.53;;;7.00;53.60;8.40;96643.00;;;;5079455;28;20204;-64
2022/03/04 09:57:07;;;;;;;8.40;5.37;;;7.20;52.50;8.20;96634.00;;;;5090166;28;20206;-65
2022/03/04 09:59:57;;;;;;;9.53;6.47;;;7.20;51.90;8.50;96637.00;;;;5088471;28;20241;-63
2022/03/04 10:02:46;;;;;;;10.03;6.20;;;7.30;51.90;9.00;96635.00;;;;5088933;28;20223;-62
2022/03/04 10:05:35;;;;;;;10.00;5.83;;;7.40;52.20;9.10;96626.00;;;;5080928;28;20195;-65
2022/03/04 10:08:25;;;;;;;7.43;6.00;;;7.60;52.10;9.20;96623.00;;;;5084835;28;20234;-66
2022/03/04 10:11:26;;;;;;;9.07;6.43;;;7.80;51.50;9.30;96628.00;;;;5072612;28;20251;-66
2022/03/04 10:14:16;;;;;;;10.37;7.40;;;8.00;50.50;8.80;96624.00;;;;5082476;28;20192;-64
2022/03/04 10:17:06;;;;;;;10.47;6.33;;;8.10;49.80;8.70;96614.00;;;;5092127;28;20195;-64
2022/03/04 10:19:57;;;;;;;8.07;5.30;;;8.00;48.90;9.50;96619.00;;;;5098000;28;20219;-65
2022/03/04 10:22:46;;;;;;;9.23;7.30;;;8.20;49.30;9.20;96602.00;;;;5090957;28;20203;-66
2022/03/04 10:25:35;;;;;;;9.17;5.93;;;8.20;49.30;9.80;96611.00;;;;5088946;28;20195;-67
2022/03/04 10:28:26;;;;;;;11.83;5.33;;;8.40;49.10;9.90;96620.00;;;;5088749;28;20713;-61
2022/03/04 10:31:14;;;;;;;8.80;5.67;;;8.50;48.90;10.30;96621.00;;;;5087879;28;20234;-60
2022/03/04 10:34:24;;;;;;;8.93;6.37;;;8.70;48.50;10.60;96618.00;;;;5083048;28;20795;-61
2022/03/04 10:37:20;;;;;;;7.30;5.13;;;8.90;48.30;11.00;96617.00;;;;5084797;28;20198;-62
2022/03/04 10:40:14;;;;;;;6.90;5.60;;;9.20;48.30;11.00;96602.00;;;;5083591;28;20479;-62
2022/03/04 10:43:05;;;;;;;10.50;5.30;;;9.40;47.30;10.80;96609.00;;;;5083474;28;20230;-66
2022/03/04 10:46:02;;;;;;;7.87;4.60;;;9.50;47.20;11.40;96612.00;;;;5085446;28;20702;-64
2022/03/04 10:48:57;;;;;;;6.33;4.63;;;9.70;47.40;11.90;96608.00;;;;5088350;28;20224;-66
2022/03/04 10:51:47;;;;;;;7.03;5.47;;;10.70;47.20;11.60;96590.00;;;;5082240;28;20210;-66
2022/03/04 10:54:36;;;;;;;6.77;5.47;;;10.30;46.00;11.70;96597.00;;;;5075553;28;20211;-65
2022/03/04 10:57:25;;;;;;;8.07;5.43;;;10.60;45.30;11.30;96596.00;;;;5097231;28;20218;-69
2022/03/04 11:00:14;;;;;;;6.33;4.73;;;10.50;44.70;10.40;96592.00;;;;5104646;28;20237;-58
2022/03/04 11:03:03;;;;;;;8.03;5.83;;;10.60;43.60;11.30;96594.00;;;;5108105;28;20230;-68
2022/03/04 11:05:55;;;;;;;8.23;7.17;;;10.40;44.60;11.10;96580.00;;;;5098355;28;20210;-58
2022/03/04 11:08:45;;;;;;;8.10;5.23;;;10.60;44.40;11.80;96590.00;;;;5096310;28;20241;-68
2022/03/04 11:11:34;;;;;;;9.60;5.80;;;10.80;44.10;12.90;96586.00;;;;5084321;28;20203;-69
2022/03/04 11:14:23;;;;;;;6.20;5.30;;;11.10;44.10;13.00;96590.00;;;;5079270;28;20211;-69
2022/03/04 11:17:13;;;;;;;8.57;5.73;;;11.40;43.80;11.00;96590.00;;;;5085750;28;20202;-68
2022/03/04 11:20:03;;;;;;;10.77;5.30;;;11.10;42.20;11.20;96617.00;;;;5084898;28;20827;-55
2022/03/04 11:22:53;;;;;;;6.13;5.27;;;11.00;42.30;11.10;96567.00;;;;5093802;28;20219;-69
2022/03/04 11:25:45;;;;;;;7.73;5.23;;;10.80;43.00;10.00;96598.00;;;;5087212;28;20221;-67
2022/03/04 11:28:38;;;;;;;5.00;4.17;;;10.60;42.20;11.60;96556.00;;;;5084523;28;20215;-68
2022/03/04 11:31:30;;;;;;;7.33;5.17;;;10.70;42.90;12.60;96593.00;;;;5080445;28;20200;-68
2022/03/04 11:34:20;;;;;;;8.00;6.03;;;11.10;43.50;14.00;96571.00;;;;5089421;28;20300;-68
2022/03/04 11:37:17;;;;;;;8.27;4.97;;;11.60;43.20;14.40;96577.00;;;;5098561;28;20256;-68
2022/03/04 11:40:33;;;;;;;5.57;4.37;;;12.10;43.10;14.50;96612.00;;;;5092180;28;20196;-68
2022/03/04 11:43:45;;;;;;;10.60;5.10;;;12.60;42.60;13.60;96618.00;;;;5089910;28;20218;-68
2022/03/04 11:46:48;;;;;;;6.30;5.50;;;12.60;41.20;12.50;96612.00;;;;5088202;28;20576;-67
2022/03/04 11:49:46;;;;;;;9.00;6.27;;;12.30;40.70;11.20;96610.00;;;;5082398;28;20247;-62
2022/03/04 11:52:44;;;;;;;7.53;5.30;;;11.70;40.50;10.90;96572.00;;;;5090015;28;20214;-68
2022/03/04 11:55:33;;;;;;;6.73;5.00;;;11.00;41.20;12.20;96569.00;;;;5091163;28;20218;-67
2022/03/04 11:58:23;;;;;;;7.13;4.60;;;11.00;42.60;13.50;96561.00;;;;5073830;28;20224;-67
2022/03/04 12:01:27;;;;;;;8.87;5.57;;;11.30;42.90;15.30;96574.00;;;;5083505;28;20196;-63
2022/03/04 12:04:18;;;;;;;8.83;4.60;;;12.10;42.90;13.40;96608.00;;;;5083195;28;20192;-68
2022/03/04 12:07:09;;;;;;;5.57;4.37;;;12.80;40.20;14.40;96591.00;;;;5077664;28;20199;-68
2022/03/04 12:10:01;;;;;;;8.37;6.03;;;12.70;40.30;14.90;96564.00;;;;5102922;28;20219;-68
2022/03/04 12:13:04;;;;;;;6.43;4.57;;;13.00;40.40;13.60;96605.00;;;;5111828;28;20199;-68
2022/03/04 12:16:03;;;;;;;6.70;5.67;;;13.40;39.70;10.70;96581.00;;;;5095374;28;20225;-67
2022/03/04 12:18:51;;;;;;;7.27;5.50;;;12.70;38.80;11.60;96609.00;;;;5085757;28;20219;-68
2022/03/04 12:21:41;;;;;;;6.77;5.90;;;11.80;40.20;11.50;96609.00;;;;5090906;28;20190;-68
2022/03/04 12:24:31;;;;;;;8.67;5.90;;;11.40;40.90;9.50;96600.00;;;;5103017;28;20670;-68
2022/03/04 12:27:37;;;;;;;7.37;5.43;;;10.90;41.40;10.50;96606.00;;;;5106584;28;20204;-68
2022/03/04 12:30:26;;;;;;;8.30;5.60;;;10.40;41.80;9.90;96600.00;;;;5081836;28;20199;-68
2022/03/04 12:33:17;;;;;;;8.70;4.83;;;9.90;42.00;10.30;96603.00;;;;5094439;28;20221;-68
2022/03/04 12:36:09;;;;;;;6.97;4.80;;;9.70;42.60;9.90;96565.00;;;;5092470;28;20576;-68